OOCL California — VRWC8 — position and weather

sailwx.info

Track history (hours):
 
Tides and Currents Weather Stations Pressure Air Temp Water Temp Dewpoint Dewpoint Depression Visibility Wind Speed Wind Dir Waves Ship Positions

OOCL California

Last reported at 2015-Aug-21 23:19 UTC. Time now 2015-Aug-31 00:38 UTC.
Position N 01°17' E 103°46'.
Warning: this ship's position is 9 days out of date.

Length 276 m; beam 40 m; draft 14 m.

Type: Cargo ship. MMSI: 477704000.

Date/timePositionNaut miles runAvg speedWind from/ knotsBaromVisibWave heightAir tempDewpointWater temp
2015-Aug-21 23:19N 01°17' E 103°46'0 0.1
2015-Aug-21 21:31N 01°17' E 103°46'0 0.0
2015-Aug-21 20:10N 01°17' E 103°46'0 0.0
2015-Aug-21 15:07N 01°17' E 103°46'0 0.0
2015-Aug-21 14:24N 01°17' E 103°46'0 0.1
2015-Aug-21 13:33N 01°17' E 103°46'0 0.0
2015-Aug-21 12:33N 01°17' E 103°46'0 0.0
2015-Aug-21 10:33N 01°17' E 103°46'0 0.1
2015-Aug-21 09:33N 01°17' E 103°46'0 0.1
2015-Aug-21 08:33N 01°17' E 103°46'1 0.8
2015-Aug-21 07:33N 01°17' E 103°45'2 2.1
2015-Aug-21 06:33N 01°16' E 103°47'0 0.0
2015-Aug-21 05:33N 01°16' E 103°47'0 0.0
2015-Aug-21 04:34N 01°16' E 103°47'0 0.0
2015-Aug-21 03:33N 01°16' E 103°47'0 0.0
2015-Aug-21 02:34N 01°16' E 103°47'0 0.0
2015-Aug-21 01:33N 01°16' E 103°47'0 0.0
2015-Aug-21 00:34N 01°16' E 103°47'0 0.0
2015-Aug-20 23:34N 01°16' E 103°47'0 0.0
2015-Aug-20 22:34N 01°16' E 103°47'0 0.0
2015-Aug-20 21:34N 01°16' E 103°47'1 0.6
2015-Aug-20 20:33N 01°16' E 103°47'8 7.8
2015-Aug-20 19:34N 01°14' E 103°54'9 8.6
2015-Aug-20 18:33N 01°16' E 104°02'1111.0
2015-Aug-20 17:31N 01°17' E 104°14'  
2015-Aug-17 15:04N 22°12' E 114°10'612.1
2015-Aug-17 14:34N 22°17' E 114°06'1211.5
2015-Aug-17 13:33N 22°22' E 113°55'5 5.5
2015-Aug-17 12:33N 22°27' E 113°53'0 0.1
2015-Aug-17 11:32N 22°27' E 113°53'0 0.0
2015-Aug-17 10:26N 22°27' E 113°53'0 0.0
2015-Aug-17 09:32N 22°27' E 113°53'0 0.0
2015-Aug-17 08:26N 22°27' E 113°53'0 0.0
2015-Aug-17 07:32N 22°27' E 113°53'0 0.0
2015-Aug-17 06:33N 22°27' E 113°53'0 0.0
2015-Aug-17 05:33N 22°27' E 113°53'0 0.0
2015-Aug-17 04:33N 22°27' E 113°53'0 0.0
2015-Aug-17 03:33N 22°27' E 113°53'0 0.0
2015-Aug-17 02:33N 22°27' E 113°53'5 5.3
2015-Aug-17 01:33N 22°22' E 113°55'1111.1
2015-Aug-17 00:34N 22°18' E 114°06'1110.3
2015-Aug-16 23:31N 22°09' E 114°13'1111.7
2015-Aug-16 22:33N 22°09' E 114°25'14315.9
2015-Aug-16 13:32N 22°52' E 116°53'8917.6
2015-Aug-16 08:30N 23°43' E 118°12'1818.6
2015-Aug-16 07:33N 23°54' E 118°27'1918.5
2015-Aug-16 06:33N 24°05' E 118°44'1917.8
2015-Aug-16 05:29N 24°20' E 118°57'1617.8
2015-Aug-16 04:33N 24°31' E 119°11'4017.0
2015-Aug-16 02:12N 24°57' E 119°44'31016.4
2015-Aug-15 07:16N 29°30' E 122°30'1317.7
2015-Aug-15 06:32N 29°41' E 122°23'1313.6
2015-Aug-15 05:33N 29°51' E 122°12'1111.2
2015-Aug-15 04:32N 29°46' E 122°00'0 0.0
2015-Aug-15 01:26N 29°46' E 122°00'0 0.0
2015-Aug-14 22:26N 29°46' E 122°00'0 0.0
2015-Aug-14 20:21N 29°46' E 122°00'0 0.0
2015-Aug-14 19:33N 29°46' E 122°00'0 0.0
2015-Aug-14 17:16N 29°46' E 122°00'0 0.0
2015-Aug-14 16:08N 29°46' E 122°00'0 0.0
2015-Aug-14 14:29N 29°46' E 122°00'2 0.7
2015-Aug-14 12:08N 29°47' E 122°02'7 7.9
2015-Aug-14 11:16N 29°50' E 122°09'910.1
2015-Aug-14 10:24N 29°46' E 122°18'5 5.7
2015-Aug-14 09:32N 29°44' E 122°23'4 3.6
2015-Aug-14 08:19N 29°43' E 122°28'5 6.7
2015-Aug-14 07:30N 29°41' E 122°34'10 8.3
2015-Aug-14 06:19N 29°46' E 122°44'7 9.1
2015-Aug-14 05:31N 29°52' E 122°49'22 5.5
2015-Aug-14 01:31N 30°14' E 122°51'1110.1
2015-Aug-14 00:29N 30°24' E 122°52'1010.5
2015-Aug-13 23:33N 30°34' E 122°55'1211.6
2015-Aug-13 22:32N 30°45' E 122°56'1111.7
2015-Aug-13 21:33N 30°56' E 122°53'1211.9
2015-Aug-13 20:33N 31°05' E 122°43'1312.7
2015-Aug-13 19:33N 31°06' E 122°29'1413.7
2015-Aug-13 18:34N 31°09' E 122°13'1414.4
2015-Aug-13 17:33N 31°15' E 121°58'1414.2
2015-Aug-13 16:34N 31°20' E 121°42'2 2.4
2015-Aug-13 15:32N 31°20' E 121°39'0 0.0
2015-Aug-13 14:32N 31°20' E 121°39'0 0.0
2015-Aug-13 13:32N 31°20' E 121°39'0 0.0
2015-Aug-13 12:32N 31°20' E 121°39'0 0.0
2015-Aug-13 11:26N 31°20' E 121°39'0 0.0
2015-Aug-13 10:26N 31°20' E 121°39'0 0.0
2015-Aug-13 09:32N 31°20' E 121°39'0 0.0
2015-Aug-13 08:32N 31°20' E 121°39'0 0.0
2015-Aug-13 07:32N 31°20' E 121°39'0 0.0
2015-Aug-13 06:32N 31°20' E 121°39'0 0.0
2015-Aug-13 05:32N 31°20' E 121°39'0 0.1
2015-Aug-13 04:29N 31°20' E 121°39'0 0.1
2015-Aug-13 03:32N 31°20' E 121°39'0 0.0
2015-Aug-13 02:32N 31°20' E 121°39'0 0.0
2015-Aug-13 01:32N 31°20' E 121°39'0 0.0
2015-Aug-13 00:32N 31°20' E 121°39'0 0.0
2015-Aug-12 23:32N 31°20' E 121°39'0 0.0
2015-Aug-12 22:32N 31°20' E 121°39'0 0.0
2015-Aug-12 21:32N 31°20' E 121°39'0 0.0
2015-Aug-12 20:32N 31°20' E 121°39'0 0.0
2015-Aug-12 19:32N 31°20' E 121°39'0 0.0
2015-Aug-12 18:32N 31°20' E 121°39'0 0.0
2015-Aug-12 17:32N 31°20' E 121°39'0 0.0
2015-Aug-12 16:29N 31°20' E 121°39'0 0.3
2015-Aug-12 15:34N 31°21' E 121°39'5 5.1
2015-Aug-12 14:34N 31°19' E 121°45'1110.8
2015-Aug-12 13:33N 31°15' E 121°57'1110.7
2015-Aug-12 12:34N 31°12' E 122°09'10 9.9
2015-Aug-12 11:34N 31°06' E 122°18'9 9.1
2015-Aug-12 10:32N 31°07' E 122°29'9 8.7
2015-Aug-12 09:33N 31°07' E 122°39'1110.6
2015-Aug-12 08:34N 30°57' E 122°44'7 6.1
2015-Aug-12 07:27N 30°50' E 122°45'0 0.0
2015-Aug-12 05:06N 30°50' E 122°45'  
Track history (hours):
 
Tides and Currents Weather Stations Pressure Air Temp Water Temp Dewpoint Dewpoint Depression Visibility Wind Speed Wind Dir Waves Ship Positions

OOCL California

Last reported at 2015-Aug-21 23:19 UTC. Time now 2015-Aug-31 00:38 UTC.
Position N 01°17' E 103°46'.
Warning: this ship's position is 9 days out of date.

Length 276 m; beam 40 m; draft 14 m.

Type: Cargo ship. MMSI: 477704000.

Date/timePositionNaut miles runAvg speedWind from/ knotsBaromVisibWave heightAir tempDewpointWater temp
2015-Aug-21 23:19N 01°17' E 103°46'0 0.1
2015-Aug-21 21:31N 01°17' E 103°46'0 0.0
2015-Aug-21 20:10N 01°17' E 103°46'0 0.0
2015-Aug-21 15:07N 01°17' E 103°46'0 0.0
2015-Aug-21 14:24N 01°17' E 103°46'0 0.1
2015-Aug-21 13:33N 01°17' E 103°46'0 0.0
2015-Aug-21 12:33N 01°17' E 103°46'0 0.0
2015-Aug-21 10:33N 01°17' E 103°46'0 0.1
2015-Aug-21 09:33N 01°17' E 103°46'0 0.1
2015-Aug-21 08:33N 01°17' E 103°46'1 0.8
2015-Aug-21 07:33N 01°17' E 103°45'2 2.1
2015-Aug-21 06:33N 01°16' E 103°47'0 0.0
2015-Aug-21 05:33N 01°16' E 103°47'0 0.0
2015-Aug-21 04:34N 01°16' E 103°47'0 0.0
2015-Aug-21 03:33N 01°16' E 103°47'0 0.0
2015-Aug-21 02:34N 01°16' E 103°47'0 0.0
2015-Aug-21 01:33N 01°16' E 103°47'0 0.0
2015-Aug-21 00:34N 01°16' E 103°47'0 0.0
2015-Aug-20 23:34N 01°16' E 103°47'0 0.0
2015-Aug-20 22:34N 01°16' E 103°47'0 0.0
2015-Aug-20 21:34N 01°16' E 103°47'1 0.6
2015-Aug-20 20:33N 01°16' E 103°47'8 7.8
2015-Aug-20 19:34N 01°14' E 103°54'9 8.6
2015-Aug-20 18:33N 01°16' E 104°02'1111.0
2015-Aug-20 17:31N 01°17' E 104°14'  
2015-Aug-17 15:04N 22°12' E 114°10'612.1
2015-Aug-17 14:34N 22°17' E 114°06'1211.5
2015-Aug-17 13:33N 22°22' E 113°55'5 5.5
2015-Aug-17 12:33N 22°27' E 113°53'0 0.1
2015-Aug-17 11:32N 22°27' E 113°53'0 0.0
2015-Aug-17 10:26N 22°27' E 113°53'0 0.0
2015-Aug-17 09:32N 22°27' E 113°53'0 0.0
2015-Aug-17 08:26N 22°27' E 113°53'0 0.0
2015-Aug-17 07:32N 22°27' E 113°53'0 0.0
2015-Aug-17 06:33N 22°27' E 113°53'0 0.0
2015-Aug-17 05:33N 22°27' E 113°53'0 0.0
2015-Aug-17 04:33N 22°27' E 113°53'0 0.0
2015-Aug-17 03:33N 22°27' E 113°53'0 0.0
2015-Aug-17 02:33N 22°27' E 113°53'5 5.3
2015-Aug-17 01:33N 22°22' E 113°55'1111.1
2015-Aug-17 00:34N 22°18' E 114°06'1110.3
2015-Aug-16 23:31N 22°09' E 114°13'1111.7
2015-Aug-16 22:33N 22°09' E 114°25'14315.9
2015-Aug-16 13:32N 22°52' E 116°53'8917.6
2015-Aug-16 08:30N 23°43' E 118°12'1818.6
2015-Aug-16 07:33N 23°54' E 118°27'1918.5
2015-Aug-16 06:33N 24°05' E 118°44'1917.8
2015-Aug-16 05:29N 24°20' E 118°57'1617.8
2015-Aug-16 04:33N 24°31' E 119°11'4017.0
2015-Aug-16 02:12N 24°57' E 119°44'31016.4
2015-Aug-15 07:16N 29°30' E 122°30'1317.7
2015-Aug-15 06:32N 29°41' E 122°23'1313.6
2015-Aug-15 05:33N 29°51' E 122°12'1111.2
2015-Aug-15 04:32N 29°46' E 122°00'0 0.0
2015-Aug-15 01:26N 29°46' E 122°00'0 0.0
2015-Aug-14 22:26N 29°46' E 122°00'0 0.0
2015-Aug-14 20:21N 29°46' E 122°00'0 0.0
2015-Aug-14 19:33N 29°46' E 122°00'0 0.0
2015-Aug-14 17:16N 29°46' E 122°00'0 0.0
2015-Aug-14 16:08N 29°46' E 122°00'0 0.0
2015-Aug-14 14:29N 29°46' E 122°00'2 0.7
2015-Aug-14 12:08N 29°47' E 122°02'7 7.9
2015-Aug-14 11:16N 29°50' E 122°09'910.1
2015-Aug-14 10:24N 29°46' E 122°18'5 5.7
2015-Aug-14 09:32N 29°44' E 122°23'4 3.6
2015-Aug-14 08:19N 29°43' E 122°28'5 6.7
2015-Aug-14 07:30N 29°41' E 122°34'10 8.3
2015-Aug-14 06:19N 29°46' E 122°44'7 9.1
2015-Aug-14 05:31N 29°52' E 122°49'22 5.5
2015-Aug-14 01:31N 30°14' E 122°51'1110.1
2015-Aug-14 00:29N 30°24' E 122°52'1010.5
2015-Aug-13 23:33N 30°34' E 122°55'1211.6
2015-Aug-13 22:32N 30°45' E 122°56'1111.7
2015-Aug-13 21:33N 30°56' E 122°53'1211.9
2015-Aug-13 20:33N 31°05' E 122°43'1312.7
2015-Aug-13 19:33N 31°06' E 122°29'1413.7
2015-Aug-13 18:34N 31°09' E 122°13'1414.4
2015-Aug-13 17:33N 31°15' E 121°58'1414.2
2015-Aug-13 16:34N 31°20' E 121°42'2 2.4
2015-Aug-13 15:32N 31°20' E 121°39'0 0.0
2015-Aug-13 14:32N 31°20' E 121°39'0 0.0
2015-Aug-13 13:32N 31°20' E 121°39'0 0.0
2015-Aug-13 12:32N 31°20' E 121°39'0 0.0
2015-Aug-13 11:26N 31°20' E 121°39'0 0.0
2015-Aug-13 10:26N 31°20' E 121°39'0 0.0
2015-Aug-13 09:32N 31°20' E 121°39'0 0.0
2015-Aug-13 08:32N 31°20' E 121°39'0 0.0
2015-Aug-13 07:32N 31°20' E 121°39'0 0.0
2015-Aug-13 06:32N 31°20' E 121°39'0 0.0
2015-Aug-13 05:32N 31°20' E 121°39'0 0.1
2015-Aug-13 04:29N 31°20' E 121°39'0 0.1
2015-Aug-13 03:32N 31°20' E 121°39'0 0.0
2015-Aug-13 02:32N 31°20' E 121°39'0 0.0
2015-Aug-13 01:32N 31°20' E 121°39'0 0.0
2015-Aug-13 00:32N 31°20' E 121°39'0 0.0
2015-Aug-12 23:32N 31°20' E 121°39'0 0.0
2015-Aug-12 22:32N 31°20' E 121°39'0 0.0
2015-Aug-12 21:32N 31°20' E 121°39'0 0.0
2015-Aug-12 20:32N 31°20' E 121°39'0 0.0
2015-Aug-12 19:32N 31°20' E 121°39'0 0.0
2015-Aug-12 18:32N 31°20' E 121°39'0 0.0
2015-Aug-12 17:32N 31°20' E 121°39'0 0.0
2015-Aug-12 16:29N 31°20' E 121°39'0 0.3
2015-Aug-12 15:34N 31°21' E 121°39'5 5.1
2015-Aug-12 14:34N 31°19' E 121°45'1110.8
2015-Aug-12 13:33N 31°15' E 121°57'1110.7
2015-Aug-12 12:34N 31°12' E 122°09'10 9.9
2015-Aug-12 11:34N 31°06' E 122°18'9 9.1
2015-Aug-12 10:32N 31°07' E 122°29'9 8.7
2015-Aug-12 09:33N 31°07' E 122°39'1110.6
2015-Aug-12 08:34N 30°57' E 122°44'7 6.1
2015-Aug-12 07:27N 30°50' E 122°45'0 0.0
2015-Aug-12 05:06N 30°50' E 122°45'  

Dump ship's entire track history